createdAt,value
2023-05-16T00:01:05.346Z,12.53
2023-05-16T00:03:52.841Z,12.62
2023-05-16T00:06:38.973Z,12.59
2023-05-16T00:09:45.075Z,12.51
2023-05-16T00:12:32.841Z,12.17
2023-05-16T00:18:31.888Z,12.20
2023-05-16T00:21:20.012Z,12.18
2023-05-16T00:24:08.841Z,12.24
2023-05-16T00:27:01.088Z,12.27
2023-05-16T00:29:54.162Z,12.28
2023-05-16T00:32:46.993Z,12.43
2023-05-16T00:38:53.657Z,12.32
2023-05-16T00:41:46.318Z,12.12
2023-05-16T00:47:55.635Z,12.07
2023-05-16T00:50:48.103Z,12.13
2023-05-16T00:53:41.148Z,11.96
2023-05-16T00:56:35.613Z,11.98
2023-05-16T00:59:28.262Z,12.10
2023-05-16T01:02:22.199Z,12.22
2023-05-16T01:05:15.284Z,12.23
2023-05-16T01:08:08.046Z,12.15
2023-05-16T01:11:40.251Z,12.00
2023-05-16T01:14:40.173Z,12.28
2023-05-16T01:17:39.492Z,12.36
2023-05-16T01:20:37.033Z,12.19
2023-05-16T01:26:47.756Z,12.40
2023-05-16T01:29:40.121Z,12.42
2023-05-16T01:32:32.763Z,12.24
2023-05-16T01:35:25.344Z,12.10
2023-05-16T01:38:34.124Z,12.39
2023-05-16T01:41:27.614Z,12.23
2023-05-16T01:44:24.966Z,12.08
2023-05-16T01:47:18.977Z,12.28
2023-05-16T01:50:16.383Z,12.00
2023-05-16T01:53:11.224Z,11.93
2023-05-16T01:56:05.182Z,11.96
2023-05-16T01:58:58.175Z,11.90
2023-05-16T02:01:54.442Z,11.84
2023-05-16T02:07:49.627Z,11.36
2023-05-16T02:13:54.336Z,10.98
2023-05-16T02:16:46.895Z,10.98
2023-05-16T02:19:41.273Z,10.84
2023-05-16T02:22:34.451Z,10.95
2023-05-16T02:25:27.302Z,10.97
2023-05-16T02:28:20.378Z,11.14
2023-05-16T02:31:13.167Z,11.22
2023-05-16T02:34:07.156Z,11.15
2023-05-16T02:37:01.285Z,11.12
2023-05-16T02:39:53.667Z,11.04
2023-05-16T02:42:46.020Z,10.91
2023-05-16T02:48:52.528Z,10.77
2023-05-16T02:51:45.128Z,10.95
2023-05-16T02:54:51.941Z,11.04
2023-05-16T02:57:53.128Z,11.05
2023-05-16T03:00:46.060Z,10.96
2023-05-16T03:03:38.785Z,10.95
2023-05-16T03:06:31.505Z,11.04
2023-05-16T03:09:25.990Z,11.01
2023-05-16T03:12:20.489Z,10.89
2023-05-16T03:15:12.887Z,10.72
2023-05-16T03:18:23.443Z,10.81
2023-05-16T03:21:13.310Z,10.78
2023-05-16T03:24:06.659Z,10.59
2023-05-16T03:26:59.860Z,10.89
2023-05-16T03:29:53.480Z,10.70
2023-05-16T03:32:53.559Z,10.65
2023-05-16T03:38:58.353Z,10.72
2023-05-16T03:45:09.821Z,10.82
2023-05-16T03:48:02.347Z,10.67
2023-05-16T03:50:55.589Z,10.34
2023-05-16T03:57:04.829Z,10.59
2023-05-16T04:03:11.372Z,10.48
2023-05-16T04:09:20.445Z,10.53
2023-05-16T04:15:25.510Z,10.46
2023-05-16T04:18:19.296Z,10.42
2023-05-16T04:21:18.150Z,10.25
2023-05-16T04:24:11.095Z,10.47
2023-05-16T04:27:04.754Z,10.30
2023-05-16T04:29:57.302Z,10.29
2023-05-16T04:35:58.384Z,10.35
2023-05-16T04:38:51.405Z,10.41
2023-05-16T04:41:43.925Z,10.35
2023-05-16T04:44:52.624Z,10.37
2023-05-16T04:47:44.269Z,10.30
2023-05-16T04:53:45.226Z,10.17
2023-05-16T04:56:38.154Z,10.19
2023-05-16T04:59:56.148Z,10.16
2023-05-16T05:02:49.257Z,10.32
2023-05-16T05:05:59.411Z,10.34
2023-05-16T05:08:50.321Z,10.46
2023-05-16T05:11:42.814Z,10.60
2023-05-16T05:17:45.967Z,10.61
2023-05-16T05:23:57.244Z,10.78
2023-05-16T05:30:01.403Z,10.82
2023-05-16T05:36:06.828Z,10.79
2023-05-16T05:39:00.808Z,10.74
2023-05-16T05:41:59.571Z,10.83
2023-05-16T05:44:52.136Z,10.96
2023-05-16T05:47:45.286Z,11.00
2023-05-16T05:50:37.999Z,11.20
2023-05-16T05:53:31.142Z,11.23
2023-05-16T05:56:29.241Z,11.77
2023-05-16T05:59:21.698Z,12.23
2023-05-16T06:05:35.408Z,12.47
2023-05-16T06:08:27.946Z,12.92
2023-05-16T06:11:21.454Z,13.43
2023-05-16T06:14:16.124Z,14.63
2023-05-16T06:17:09.233Z,14.71
2023-05-16T06:20:02.100Z,14.88
2023-05-16T06:22:55.018Z,15.16
2023-05-16T06:25:51.991Z,14.90
2023-05-16T06:28:45.042Z,15.74
2023-05-16T06:31:39.400Z,17.10
2023-05-16T06:37:42.956Z,18.06
2023-05-16T06:40:36.394Z,18.37
2023-05-16T06:43:29.186Z,18.40
2023-05-16T06:46:23.076Z,17.64
2023-05-16T06:49:17.562Z,17.78
2023-05-16T06:52:10.370Z,17.38
2023-05-16T06:55:05.755Z,16.80
2023-05-16T06:57:58.170Z,15.98
2023-05-16T07:00:51.517Z,16.02
2023-05-16T07:03:43.845Z,16.46
2023-05-16T07:06:38.562Z,16.05
2023-05-16T07:09:31.210Z,16.65
2023-05-16T07:12:23.764Z,16.91
2023-05-16T07:15:16.250Z,18.37
2023-05-16T07:18:09.075Z,19.60
2023-05-16T07:21:02.321Z,18.37
2023-05-16T07:23:56.369Z,17.84
2023-05-16T07:26:49.759Z,16.75
2023-05-16T07:33:11.436Z,16.83
2023-05-16T07:36:41.492Z,16.98
2023-05-16T07:39:35.407Z,17.30
2023-05-16T07:43:05.313Z,16.87
2023-05-16T07:45:58.235Z,17.58
2023-05-16T07:48:51.397Z,18.17
2023-05-16T07:51:43.890Z,18.36
2023-05-16T07:54:37.591Z,19.99
2023-05-16T07:57:30.204Z,20.28
2023-05-16T08:00:24.220Z,20.43
2023-05-16T08:03:16.945Z,19.42
2023-05-16T08:09:31.308Z,19.93
2023-05-16T08:16:11.698Z,20.74
2023-05-16T08:19:04.137Z,22.82
2023-05-16T08:21:57.409Z,24.47
2023-05-16T08:24:49.815Z,25.57
2023-05-16T08:27:42.892Z,25.53
2023-05-16T08:30:35.257Z,26.49
2023-05-16T08:33:29.439Z,24.30
2023-05-16T08:40:11.019Z,25.80
2023-05-16T08:43:29.337Z,25.78
2023-05-16T08:46:24.100Z,24.83
2023-05-16T08:49:34.471Z,22.57
2023-05-16T08:52:28.717Z,22.71
2023-05-16T08:58:42.345Z,23.80
2023-05-16T09:04:39.955Z,26.45
2023-05-16T09:10:50.859Z,24.71
2023-05-16T09:13:44.607Z,21.77
2023-05-16T09:16:37.656Z,22.72
2023-05-16T09:19:34.639Z,22.60
2023-05-16T09:22:27.532Z,22.23
2023-05-16T09:28:34.933Z,20.26
2023-05-16T09:34:44.277Z,19.33
2023-05-16T09:40:53.496Z,18.02
2023-05-16T09:43:47.636Z,18.24
2023-05-16T09:46:40.039Z,18.08
2023-05-16T09:49:33.153Z,18.27
2023-05-16T09:52:28.038Z,18.40
2023-05-16T09:55:21.175Z,19.98
2023-05-16T09:58:17.955Z,21.26
2023-05-16T10:01:12.999Z,21.91
2023-05-16T10:04:06.714Z,22.17
2023-05-16T10:07:01.710Z,21.26
2023-05-16T10:09:55.332Z,22.50
2023-05-16T10:12:48.600Z,22.35
2023-05-16T10:15:41.216Z,22.75
2023-05-16T10:22:00.397Z,21.47
2023-05-16T10:24:58.982Z,22.13
2023-05-16T10:27:52.394Z,23.02
2023-05-16T10:30:46.588Z,23.16
2023-05-16T10:33:32.827Z,23.35
2023-05-16T10:36:18.834Z,23.61
2023-05-16T10:39:06.651Z,24.19
2023-05-16T10:41:52.756Z,23.10
2023-05-16T10:44:40.474Z,22.47
2023-05-16T10:47:27.984Z,20.23
2023-05-16T10:50:14.179Z,19.87
2023-05-16T10:53:13.619Z,19.69
2023-05-16T10:56:09.863Z,21.19
2023-05-16T10:58:56.706Z,21.96
2023-05-16T11:01:42.703Z,22.44
2023-05-16T11:04:46.406Z,21.20
2023-05-16T11:07:34.468Z,20.67
2023-05-16T11:10:27.362Z,20.55
2023-05-16T11:13:25.581Z,20.57
2023-05-16T11:16:28.093Z,21.47
2023-05-16T11:19:32.680Z,22.33
2023-05-16T11:22:26.800Z,22.29
2023-05-16T11:25:39.199Z,21.79
2023-05-16T11:28:33.659Z,20.37
2023-05-16T11:31:26.451Z,19.59
2023-05-16T11:34:19.439Z,19.46
2023-05-16T11:40:37.265Z,18.19
2023-05-16T11:46:41.912Z,18.69
2023-05-16T11:52:53.399Z,19.45
2023-05-16T11:58:59.326Z,18.90
2023-05-16T12:01:53.537Z,19.62
2023-05-16T12:04:47.835Z,20.30
2023-05-16T12:07:41.814Z,21.13
2023-05-16T12:10:35.050Z,22.03
2023-05-16T12:13:28.744Z,22.72
2023-05-16T12:16:21.417Z,23.41
2023-05-16T12:19:16.096Z,24.41
2023-05-16T12:22:17.219Z,23.06
2023-05-16T12:25:22.838Z,22.77
2023-05-16T12:28:15.834Z,21.74
2023-05-16T12:31:29.360Z,20.37
2023-05-16T12:34:29.846Z,19.76
2023-05-16T12:37:22.380Z,19.19
2023-05-16T12:40:15.074Z,18.76
2023-05-16T12:43:14.529Z,19.52
2023-05-16T12:46:11.440Z,19.56
2023-05-16T12:49:05.703Z,19.57
2023-05-16T12:52:05.608Z,19.01
2023-05-16T12:54:58.496Z,18.41
2023-05-16T13:01:03.677Z,19.37
2023-05-16T13:03:56.081Z,20.85
2023-05-16T13:09:49.323Z,21.67
2023-05-16T13:12:42.577Z,23.58
2023-05-16T13:15:34.972Z,23.17
2023-05-16T13:18:28.112Z,22.91
2023-05-16T13:21:22.412Z,22.94
2023-05-16T13:24:15.278Z,22.03
2023-05-16T13:27:09.689Z,20.65
2023-05-16T13:30:08.755Z,20.46
2023-05-16T13:33:01.441Z,20.23
2023-05-16T13:35:55.271Z,20.72
2023-05-16T13:38:48.498Z,21.35
2023-05-16T13:41:42.129Z,22.18
2023-05-16T13:44:36.713Z,22.89
2023-05-16T13:47:29.525Z,23.49
2023-05-16T13:50:22.343Z,22.97
2023-05-16T13:53:15.215Z,23.08
2023-05-16T13:56:08.187Z,22.42
2023-05-16T13:59:05.850Z,21.22
2023-05-16T14:02:01.447Z,20.31
2023-05-16T14:04:54.121Z,19.46
2023-05-16T14:07:47.296Z,18.77
2023-05-16T14:10:40.361Z,18.96
2023-05-16T14:13:33.319Z,19.10
2023-05-16T14:16:26.376Z,18.80
2023-05-16T14:22:32.838Z,20.15
2023-05-16T14:25:25.437Z,19.96
2023-05-16T14:28:18.070Z,19.94
2023-05-16T14:31:11.468Z,20.12
2023-05-16T14:34:04.172Z,20.69
2023-05-16T14:36:57.663Z,20.46
2023-05-16T14:39:52.854Z,19.73
2023-05-16T14:42:45.080Z,19.83
2023-05-16T14:45:39.197Z,18.83
2023-05-16T14:48:33.104Z,17.87
2023-05-16T14:51:26.253Z,17.24
2023-05-16T14:54:19.459Z,17.22
2023-05-16T14:57:52.513Z,16.92
2023-05-16T15:00:53.410Z,16.86
2023-05-16T15:04:11.563Z,17.20
2023-05-16T15:07:05.074Z,17.31
2023-05-16T15:10:12.424Z,18.38
2023-05-16T15:13:04.789Z,19.64
2023-05-16T15:19:19.674Z,20.76
2023-05-16T15:25:17.055Z,22.02
2023-05-16T15:28:10.614Z,21.91
2023-05-16T15:31:04.548Z,21.28
2023-05-16T15:33:57.182Z,20.13
2023-05-16T15:36:52.290Z,19.81
2023-05-16T15:39:45.324Z,19.40
2023-05-16T15:42:38.378Z,18.05
2023-05-16T15:45:42.699Z,17.53
2023-05-16T15:48:35.407Z,17.58
2023-05-16T15:51:28.325Z,17.75
2023-05-16T15:54:22.469Z,17.99
2023-05-16T15:57:14.968Z,18.02
2023-05-16T16:00:08.819Z,17.57
2023-05-16T16:03:03.940Z,17.77
2023-05-16T16:09:18.294Z,17.78
2023-05-16T16:15:19.675Z,18.06
2023-05-16T16:18:13.777Z,18.33
2023-05-16T16:21:07.212Z,18.39
2023-05-16T16:24:00.491Z,18.36
2023-05-16T16:26:53.256Z,18.03
2023-05-16T16:29:46.573Z,17.94
2023-05-16T16:32:40.475Z,17.93
2023-05-16T16:35:34.253Z,17.49
2023-05-16T16:38:27.241Z,17.22
2023-05-16T16:41:20.035Z,17.19
2023-05-16T16:44:13.832Z,16.88
2023-05-16T16:47:06.553Z,17.11
2023-05-16T16:50:01.176Z,16.93
2023-05-16T16:52:54.854Z,16.93
2023-05-16T16:55:47.265Z,17.28
2023-05-16T16:58:40.192Z,16.82
2023-05-16T17:04:49.525Z,17.08
2023-05-16T17:07:44.042Z,16.79
2023-05-16T17:11:05.050Z,16.75
2023-05-16T17:13:59.579Z,16.40
2023-05-16T17:20:10.055Z,16.04
2023-05-16T17:23:04.656Z,16.12
2023-05-16T17:25:57.432Z,16.23
2023-05-16T17:28:50.389Z,16.03
2023-05-16T17:31:43.014Z,15.99
2023-05-16T17:34:36.453Z,16.04
2023-05-16T17:37:29.381Z,16.20
2023-05-16T17:40:23.998Z,16.04
2023-05-16T17:43:17.060Z,15.80
2023-05-16T17:46:09.945Z,15.38
2023-05-16T17:49:27.582Z,15.32
2023-05-16T17:52:22.014Z,14.85
2023-05-16T17:55:28.480Z,14.96
2023-05-16T17:58:22.246Z,15.04
2023-05-16T18:01:15.165Z,14.54
2023-05-16T18:04:08.903Z,14.50
2023-05-16T18:07:02.246Z,14.36
2023-05-16T18:09:55.501Z,14.23
2023-05-16T18:12:48.297Z,14.23
2023-05-16T18:15:42.605Z,14.10
2023-05-16T18:18:37.401Z,14.05
2023-05-16T18:21:30.337Z,14.01
2023-05-16T18:24:23.253Z,13.95
2023-05-16T18:27:16.157Z,13.79
2023-05-16T18:30:10.607Z,13.90
2023-05-16T18:33:06.366Z,13.90
2023-05-16T18:35:59.068Z,13.71
2023-05-16T18:38:52.895Z,13.40
2023-05-16T18:44:58.526Z,13.13
2023-05-16T18:51:05.718Z,13.34
2023-05-16T18:57:11.308Z,13.02
2023-05-16T19:00:05.610Z,13.04
2023-05-16T19:02:58.233Z,12.83
2023-05-16T19:05:51.549Z,13.03
2023-05-16T19:08:47.959Z,13.03
2023-05-16T19:15:18.587Z,12.89
2023-05-16T19:18:49.576Z,13.01
2023-05-16T19:21:42.393Z,12.81
2023-05-16T19:24:36.550Z,12.89
2023-05-16T19:27:29.355Z,12.77
2023-05-16T19:30:23.361Z,12.60
2023-05-16T19:33:16.515Z,12.61
2023-05-16T19:36:09.742Z,12.69
2023-05-16T19:39:02.291Z,12.64
2023-05-16T19:41:57.053Z,12.49
2023-05-16T19:44:50.103Z,12.68
2023-05-16T19:47:43.851Z,12.35
2023-05-16T19:50:37.523Z,12.43
2023-05-16T19:53:30.689Z,12.22
2023-05-16T19:56:23.066Z,12.19
2023-05-16T19:59:17.773Z,12.14
2023-05-16T20:02:10.465Z,12.24
2023-05-16T20:05:04.347Z,12.36
2023-05-16T20:07:57.423Z,12.25
2023-05-16T20:10:49.879Z,12.29
2023-05-16T20:13:42.338Z,12.36
2023-05-16T20:20:08.308Z,12.39
2023-05-16T20:23:33.390Z,12.30
2023-05-16T20:26:26.443Z,12.25
2023-05-16T20:29:35.421Z,12.30
2023-05-16T20:32:26.535Z,12.07
2023-05-16T20:39:08.837Z,12.29
2023-05-16T20:42:01.428Z,12.48
2023-05-16T20:44:54.357Z,12.16
2023-05-16T20:47:48.290Z,12.25
2023-05-16T20:50:41.195Z,12.24
2023-05-16T20:53:34.404Z,12.25
2023-05-16T20:57:04.458Z,12.49
2023-05-16T20:59:58.804Z,12.40
2023-05-16T21:03:19.502Z,12.45
2023-05-16T21:06:12.333Z,12.33
2023-05-16T21:09:05.896Z,12.24
2023-05-16T21:15:19.881Z,12.26
2023-05-16T21:21:35.604Z,12.15
2023-05-16T21:27:53.488Z,11.83
2023-05-16T21:33:56.401Z,11.34
2023-05-16T21:39:51.543Z,10.94
2023-05-16T21:45:56.556Z,10.40
2023-05-16T21:48:49.094Z,10.45
2023-05-16T21:51:47.421Z,10.34
2023-05-16T21:54:40.549Z,10.12
2023-05-16T21:57:33.310Z,9.95
2023-05-16T22:00:26.446Z,9.78
2023-05-16T22:03:21.058Z,9.86
2023-05-16T22:06:14.205Z,9.83
2023-05-16T22:09:08.686Z,9.82
2023-05-16T22:12:01.342Z,9.72
2023-05-16T22:14:54.378Z,9.65
2023-05-16T22:18:12.454Z,9.57
2023-05-16T22:21:06.129Z,9.55
2023-05-16T22:23:59.270Z,9.51
2023-05-16T22:26:53.542Z,9.47
2023-05-16T22:29:46.241Z,9.42
2023-05-16T22:32:39.558Z,9.28
2023-05-16T22:35:43.517Z,9.23
2023-05-16T22:38:36.366Z,9.14
2023-05-16T22:41:29.601Z,9.09
2023-05-16T22:47:29.122Z,9.07
2023-05-16T22:53:34.640Z,9.08
2023-05-16T22:59:43.749Z,9.10
2023-05-16T23:02:37.412Z,9.18
2023-05-16T23:05:30.403Z,9.21
2023-05-16T23:08:23.479Z,9.27
2023-05-16T23:11:41.334Z,9.35
2023-05-16T23:14:34.301Z,9.33
2023-05-16T23:18:04.586Z,9.30
2023-05-16T23:20:58.436Z,9.27
2023-05-16T23:24:04.299Z,9.25
2023-05-16T23:26:57.202Z,9.38
2023-05-16T23:33:36.276Z,9.54
2023-05-16T23:39:39.888Z,9.96
2023-05-16T23:42:26.217Z,9.88
2023-05-16T23:45:12.678Z,9.92
2023-05-16T23:47:59.190Z,10.00
2023-05-16T23:50:45.463Z,9.83
2023-05-16T23:53:32.960Z,9.81
2023-05-16T23:56:20.645Z,9.60
2023-05-16T23:59:06.573Z,9.43
